Airfield :
LOGIN :

Register | Disclaimer

   EN    FR    IT 

 










Legend :    VFR   Marginal VFR   IFR   Intensive IFR   Very Intensive IFR
Visi :
Ceiling :
>= 8 km
>= 3000ft
5 to 8 km
1000 to 3000 ft
1500m to 5 km
500 to 1000 ft
800 to 1500m
200 to 500 ft
< 800m
< 200 ft
Symbols :   Thunderstorms  Fog  Heavy snow  Heavy precipitations  Wind > 20 kt
SIGMETs :     Misc.  Thunderstorms  Icing  Turbulence  Mountain Waves  Volcanic Ashes






- Airport Elevation : 83 ft
- IATA code : LHR


EGLL - London Heathrow

CURRENT METAR :
  • 131650Z AUTO 20006KT 130V260 9999 NCD 27/14 Q1024 NOSIG

EXPIRED METARs :
  • 131620Z AUTO 21006KT 160V270 9999 NCD 27/14 Q1024 NOSIG
  • 131550Z AUTO VRB03KT 9999 NCD 27/14 Q1024 NOSIG
  • 131520Z AUTO 21006KT 160V240 9999 NCD 27/14 Q1025 NOSIG
  • 131450Z AUTO 21006KT 150V300 9999 NCD 27/13 Q1025
  • 131420Z AUTO 21007KT 160V300 9999 NCD 27/13 Q1025 NOSIG

TAF TAF EGLL
Valid from the 13 at 12:00 until the 14 at 18:00 UTC


131052Z 1312/1418 VRB03KT 9999 FEW045
BECMG 1315/1318 21010KT
BECMG 1406/1409 27006KT



MET'MAP, your aeronautical weather chart ! - Copyright ORBIFLY December 2007 - Disclaimer

ORBIFLY MET'MAP TEAM :

Programming & Development : Alexandra Zaïnal
Concept & original design : Baudouin d'Aumeries
Assistance for programming : Marc-Olivier Méhu
Technical & hardware support : Manuel Goepfert

Contact : metmap@orbifly.com




SOURCES & CREDITS :

   NOAA